createdAt,value
2023-01-18T00:00:33.638Z,70.07
2023-01-18T00:04:17.791Z,69.90
2023-01-18T00:08:00.513Z,70.09
2023-01-18T00:11:43.173Z,70.10
2023-01-18T00:15:25.961Z,70.04
2023-01-18T00:19:13.081Z,69.74
2023-01-18T00:22:58.941Z,69.88
2023-01-18T00:26:43.921Z,69.94
2023-01-18T00:30:28.047Z,70.18
2023-01-18T00:34:11.205Z,70.12
2023-01-18T00:37:56.723Z,70.37
2023-01-18T00:42:00.795Z,70.94
2023-01-18T00:45:43.936Z,71.14
2023-01-18T00:49:26.695Z,71.46
2023-01-18T00:53:09.385Z,71.92
2023-01-18T00:56:53.446Z,71.30
2023-01-18T01:00:36.123Z,71.50
2023-01-18T01:04:36.383Z,70.91
2023-01-18T01:08:19.862Z,71.05
2023-01-18T01:12:21.540Z,71.31
2023-01-18T01:16:24.044Z,71.41
2023-01-18T01:20:25.733Z,71.49
2023-01-18T01:24:26.207Z,71.58
2023-01-18T01:28:10.225Z,70.91
2023-01-18T01:31:53.024Z,71.48
2023-01-18T01:35:36.003Z,71.21
2023-01-18T01:39:18.752Z,70.82
2023-01-18T01:43:01.614Z,71.40
2023-01-18T01:46:48.719Z,71.22
2023-01-18T01:50:35.922Z,71.42
2023-01-18T01:54:23.281Z,70.63
2023-01-18T01:58:08.460Z,70.10
2023-01-18T02:01:52.676Z,70.31
2023-01-18T02:05:37.834Z,70.27
2023-01-18T02:09:23.182Z,70.02
2023-01-18T02:13:06.810Z,70.31
2023-01-18T02:17:01.913Z,70.58
2023-01-18T02:21:16.564Z,70.09
2023-01-18T02:25:18.237Z,70.41
2023-01-18T02:29:07.817Z,70.18
2023-01-18T02:32:58.200Z,70.05
2023-01-18T02:36:46.185Z,70.45
2023-01-18T02:40:33.129Z,70.56
2023-01-18T02:44:37.223Z,70.47
2023-01-18T02:48:21.887Z,70.40
2023-01-18T02:52:05.949Z,70.70
2023-01-18T02:55:53.028Z,70.25
2023-01-18T02:59:40.172Z,70.45
2023-01-18T03:03:24.289Z,70.43
2023-01-18T03:07:11.670Z,69.96
2023-01-18T03:11:00.949Z,69.42
2023-01-18T03:14:49.063Z,69.42
2023-01-18T03:18:36.943Z,68.44
2023-01-18T03:22:39.623Z,68.33
2023-01-18T03:26:23.044Z,67.60
2023-01-18T03:30:27.871Z,67.38
2023-01-18T03:34:17.626Z,67.10
2023-01-18T03:38:00.748Z,67.06
2023-01-18T03:41:45.646Z,66.79
2023-01-18T03:45:31.958Z,67.47
2023-01-18T03:49:14.964Z,67.43
2023-01-18T03:53:00.150Z,67.09
2023-01-18T03:56:45.322Z,67.36
2023-01-18T04:00:31.421Z,67.48
2023-01-18T04:04:14.166Z,66.92
2023-01-18T04:07:56.832Z,67.07
2023-01-18T04:11:39.483Z,66.90
2023-01-18T04:15:22.196Z,66.70
2023-01-18T04:19:07.405Z,66.69
2023-01-18T04:22:52.946Z,66.22
2023-01-18T04:26:35.607Z,66.77
2023-01-18T04:30:18.885Z,67.32
2023-01-18T04:34:01.589Z,67.65
2023-01-18T04:37:45.632Z,67.33
2023-01-18T04:41:28.493Z,67.40
2023-01-18T04:45:14.035Z,67.60
2023-01-18T04:48:56.708Z,67.65
2023-01-18T04:52:39.592Z,67.81
2023-01-18T04:56:23.615Z,67.22
2023-01-18T05:00:08.941Z,67.04
2023-01-18T05:03:53.527Z,66.18
2023-01-18T05:07:36.203Z,65.79
2023-01-18T05:11:23.091Z,65.25
2023-01-18T05:15:08.661Z,65.35
2023-01-18T05:18:51.590Z,65.12
2023-01-18T05:22:34.749Z,65.17
2023-01-18T05:26:19.174Z,65.52
2023-01-18T05:30:02.305Z,65.99
2023-01-18T05:33:46.367Z,65.90
2023-01-18T05:37:29.059Z,66.46
2023-01-18T05:41:11.740Z,66.26
2023-01-18T05:44:54.416Z,66.43
2023-01-18T05:48:37.150Z,66.19
2023-01-18T05:52:21.185Z,66.36
2023-01-18T05:56:06.042Z,65.74
2023-01-18T05:59:48.763Z,66.24
2023-01-18T06:03:31.485Z,65.76
2023-01-18T06:07:15.051Z,65.95
2023-01-18T06:11:00.198Z,65.42
2023-01-18T06:14:42.887Z,65.30
2023-01-18T06:18:27.355Z,65.50
2023-01-18T06:22:10.505Z,65.76
2023-01-18T06:25:53.213Z,65.56
2023-01-18T06:29:37.291Z,65.93
2023-01-18T06:33:19.989Z,65.80
2023-01-18T06:37:02.910Z,66.37
2023-01-18T06:40:45.744Z,66.51
2023-01-18T06:44:28.755Z,66.44
2023-01-18T06:48:12.854Z,66.46
2023-01-18T06:51:55.528Z,66.39
2023-01-18T06:55:38.244Z,66.77
2023-01-18T06:59:20.942Z,66.38
2023-01-18T07:03:04.375Z,66.08
2023-01-18T07:06:48.433Z,66.03
2023-01-18T07:10:31.175Z,65.85
2023-01-18T07:14:15.049Z,65.84
2023-01-18T07:17:57.854Z,65.76
2023-01-18T07:21:40.533Z,66.12
2023-01-18T07:25:24.676Z,65.71
2023-01-18T07:29:07.391Z,65.46
2023-01-18T07:32:51.608Z,66.30
2023-01-18T07:36:34.289Z,65.57
2023-01-18T07:40:17.646Z,65.47
2023-01-18T07:44:02.205Z,64.94
2023-01-18T07:47:46.408Z,65.09
2023-01-18T07:51:29.383Z,65.04
2023-01-18T07:55:12.038Z,65.44
2023-01-18T07:58:54.806Z,65.73
2023-01-18T08:02:38.869Z,65.75
2023-01-18T08:06:24.793Z,65.53
2023-01-18T08:10:07.949Z,65.09
2023-01-18T08:13:52.486Z,64.84
2023-01-18T08:17:35.397Z,64.37
2023-01-18T08:21:19.652Z,64.67
2023-01-18T08:25:02.399Z,64.09
2023-01-18T08:28:46.093Z,64.31
2023-01-18T08:32:28.746Z,64.17
2023-01-18T08:36:12.580Z,63.30
2023-01-18T08:39:56.596Z,63.15
2023-01-18T08:43:39.311Z,62.76
2023-01-18T08:47:22.067Z,62.64
2023-01-18T08:51:05.247Z,62.20
2023-01-18T08:54:48.084Z,62.76
2023-01-18T08:58:33.648Z,62.39
2023-01-18T09:02:16.835Z,62.64
2023-01-18T09:06:00.871Z,61.72
2023-01-18T09:09:44.838Z,62.14
2023-01-18T09:13:27.510Z,62.55
2023-01-18T09:17:13.156Z,62.58
2023-01-18T09:20:56.412Z,61.96
2023-01-18T09:24:39.428Z,61.94
2023-01-18T09:28:22.052Z,62.06
2023-01-18T09:32:04.970Z,62.36
2023-01-18T09:35:49.204Z,64.19
2023-01-18T09:39:40.272Z,62.17
2023-01-18T09:43:39.123Z,62.14
2023-01-18T09:47:25.384Z,62.58
2023-01-18T09:51:11.285Z,61.33
2023-01-18T09:54:57.646Z,61.89
2023-01-18T09:58:48.001Z,62.21
2023-01-18T10:02:40.113Z,62.44
2023-01-18T10:06:27.911Z,62.38
2023-01-18T10:10:15.404Z,62.78
2023-01-18T10:14:03.148Z,63.02
2023-01-18T10:17:46.851Z,63.61
2023-01-18T10:21:38.453Z,64.14
2023-01-18T10:25:25.600Z,64.43
2023-01-18T10:29:15.749Z,64.35
2023-01-18T10:33:00.455Z,63.54
2023-01-18T10:36:47.407Z,63.35
2023-01-18T10:40:30.227Z,63.63
2023-01-18T10:44:12.938Z,64.67
2023-01-18T10:47:57.403Z,64.29
2023-01-18T10:51:40.483Z,64.15
2023-01-18T10:55:24.843Z,64.16
2023-01-18T10:59:25.001Z,63.75
2023-01-18T11:03:10.025Z,63.79
2023-01-18T11:06:54.711Z,63.20
2023-01-18T11:10:39.540Z,62.90
2023-01-18T11:14:27.332Z,62.99
2023-01-18T11:18:11.963Z,62.33
2023-01-18T11:21:54.812Z,62.01
2023-01-18T11:25:40.311Z,62.16
2023-01-18T11:29:23.655Z,62.92
2023-01-18T11:33:06.305Z,63.13
2023-01-18T11:36:49.895Z,63.83
2023-01-18T11:40:33.960Z,64.07
2023-01-18T11:44:22.600Z,63.81
2023-01-18T11:48:10.740Z,64.10
2023-01-18T11:51:56.866Z,63.60
2023-01-18T11:55:43.847Z,64.13
2023-01-18T11:59:31.044Z,63.53
2023-01-18T12:03:30.768Z,63.64
2023-01-18T12:07:21.257Z,62.91
2023-01-18T12:11:13.881Z,62.16
2023-01-18T12:15:11.104Z,62.69
2023-01-18T12:19:10.677Z,60.54
2023-01-18T12:23:23.487Z,61.18
2023-01-18T12:27:10.501Z,60.96
2023-01-18T12:31:05.305Z,60.58
2023-01-18T12:35:00.244Z,59.67
2023-01-18T12:38:48.097Z,60.46
2023-01-18T12:42:43.459Z,60.62
2023-01-18T12:46:29.132Z,59.87
2023-01-18T12:50:22.270Z,59.29
2023-01-18T12:54:21.674Z,59.30
2023-01-18T12:58:04.820Z,61.47
2023-01-18T13:01:52.939Z,63.46
2023-01-18T13:05:43.883Z,63.47
2023-01-18T13:09:28.770Z,63.77
2023-01-18T13:13:22.940Z,64.07
2023-01-18T13:17:12.519Z,64.52
2023-01-18T13:21:07.735Z,64.72
2023-01-18T13:24:58.936Z,64.72
2023-01-18T13:28:43.145Z,65.15
2023-01-18T13:32:31.035Z,64.42
2023-01-18T13:36:15.487Z,62.90
2023-01-18T13:39:58.735Z,63.01
2023-01-18T13:44:04.010Z,60.88
2023-01-18T13:47:56.506Z,61.45
2023-01-18T13:51:53.549Z,62.45
2023-01-18T13:55:36.483Z,61.74
2023-01-18T13:59:23.308Z,61.04
2023-01-18T14:03:16.574Z,60.53
2023-01-18T14:07:01.068Z,60.03
2023-01-18T14:10:48.855Z,59.36
2023-01-18T14:14:32.842Z,60.68
2023-01-18T14:18:21.320Z,61.64
2023-01-18T14:22:15.962Z,63.20
2023-01-18T14:26:01.498Z,63.41
2023-01-18T14:29:47.206Z,63.65
2023-01-18T14:33:34.572Z,64.34
2023-01-18T14:37:27.042Z,65.50
2023-01-18T14:41:11.200Z,65.92
2023-01-18T14:44:58.766Z,66.98
2023-01-18T14:48:47.482Z,66.65
2023-01-18T14:52:32.372Z,66.82
2023-01-18T14:56:18.165Z,67.15
2023-01-18T15:05:38.608Z,66.75
2023-01-18T15:09:22.656Z,66.40
2023-01-18T15:13:06.098Z,66.69
2023-01-18T15:16:51.028Z,66.35
2023-01-18T15:20:34.640Z,66.16
2023-01-18T15:24:20.603Z,66.22
2023-01-18T15:28:18.398Z,65.75
2023-01-18T15:32:09.308Z,66.31
2023-01-18T15:35:55.813Z,65.81
2023-01-18T15:39:49.187Z,66.17
2023-01-18T15:43:34.845Z,64.88
2023-01-18T15:47:23.565Z,64.83
2023-01-18T15:51:08.332Z,65.02
2023-01-18T15:54:52.411Z,65.59
2023-01-18T15:58:37.779Z,65.10
2023-01-18T16:02:21.745Z,65.86
2023-01-18T16:06:11.083Z,66.01
2023-01-18T16:10:10.623Z,66.69
2023-01-18T16:13:58.445Z,66.47
2023-01-18T16:17:44.731Z,66.41
2023-01-18T16:21:43.744Z,65.22
2023-01-18T16:25:27.804Z,65.58
2023-01-18T16:29:11.954Z,65.79
2023-01-18T16:32:54.644Z,65.65
2023-01-18T16:36:42.528Z,65.47
2023-01-18T16:40:27.194Z,66.02
2023-01-18T16:44:11.609Z,65.80
2023-01-18T16:47:54.504Z,65.94
2023-01-18T16:51:37.221Z,66.21
2023-01-18T16:55:20.085Z,66.54
2023-01-18T16:59:13.845Z,65.69
2023-01-18T17:02:56.608Z,66.30
2023-01-18T17:06:40.533Z,65.84
2023-01-18T17:10:27.452Z,65.98
2023-01-18T17:14:11.509Z,65.21
2023-01-18T17:17:54.287Z,65.00
2023-01-18T17:21:36.926Z,65.32
2023-01-18T17:25:20.258Z,64.76
2023-01-18T17:29:03.091Z,64.67
2023-01-18T17:32:47.316Z,64.15
2023-01-18T17:36:29.975Z,63.66
2023-01-18T17:40:22.690Z,62.39
2023-01-18T17:44:07.783Z,62.93
2023-01-18T17:47:53.590Z,62.99
2023-01-18T17:51:38.215Z,62.82
2023-01-18T17:55:27.302Z,62.65
2023-01-18T17:59:13.332Z,62.80
2023-01-18T18:02:59.857Z,63.35
2023-01-18T18:06:53.691Z,63.89
2023-01-18T18:10:36.814Z,63.90
2023-01-18T18:14:19.536Z,64.25
2023-01-18T18:18:07.518Z,65.31
2023-01-18T18:21:52.346Z,64.17
2023-01-18T18:25:35.131Z,64.52
2023-01-18T18:29:18.074Z,65.47
2023-01-18T18:33:01.198Z,65.21
2023-01-18T18:36:45.431Z,64.95
2023-01-18T18:40:28.131Z,65.42
2023-01-18T18:44:10.870Z,65.78
2023-01-18T18:47:53.728Z,65.50
2023-01-18T18:51:36.501Z,66.15
2023-01-18T18:55:20.572Z,66.75
2023-01-18T18:59:03.250Z,67.06
2023-01-18T19:02:46.008Z,66.78
2023-01-18T19:06:28.895Z,67.84
2023-01-18T19:10:14.707Z,68.69
2023-01-18T19:13:58.915Z,68.75
2023-01-18T19:17:41.592Z,68.50
2023-01-18T19:21:24.323Z,68.27
2023-01-18T19:25:09.988Z,67.19
2023-01-18T19:28:52.649Z,67.86
2023-01-18T19:32:36.856Z,67.81
2023-01-18T19:36:19.800Z,67.90
2023-01-18T19:40:02.552Z,68.75
2023-01-18T19:43:45.684Z,68.75
2023-01-18T19:47:28.421Z,69.19
2023-01-18T19:51:21.724Z,69.88
2023-01-18T19:55:05.840Z,72.11
2023-01-18T19:58:49.991Z,72.05
2023-01-18T20:02:32.748Z,71.12
2023-01-18T20:06:19.248Z,71.63
2023-01-18T20:10:03.082Z,72.04
2023-01-18T20:13:49.189Z,71.89
2023-01-18T20:17:34.752Z,72.12
2023-01-18T20:21:19.290Z,72.37
2023-01-18T20:25:02.038Z,72.44
2023-01-18T20:28:45.001Z,71.99
2023-01-18T20:32:27.673Z,71.78
2023-01-18T20:36:10.586Z,71.40
2023-01-18T20:39:55.932Z,71.74
2023-01-18T20:43:38.662Z,72.25
2023-01-18T20:47:21.827Z,72.13
2023-01-18T20:51:05.429Z,72.04
2023-01-18T20:54:48.182Z,72.16
2023-01-18T20:58:32.510Z,72.35
2023-01-18T21:02:15.531Z,73.14
2023-01-18T21:05:58.376Z,73.87
2023-01-18T21:09:41.051Z,74.99
2023-01-18T21:13:24.717Z,75.17
2023-01-18T21:17:08.778Z,75.84
2023-01-18T21:20:55.003Z,75.93
2023-01-18T21:24:37.810Z,76.09
2023-01-18T21:28:20.918Z,76.03
2023-01-18T21:32:03.639Z,75.80
2023-01-18T21:35:50.562Z,75.79
2023-01-18T21:39:33.688Z,76.00
2023-01-18T21:43:37.152Z,76.99
2023-01-18T21:47:19.801Z,76.82
2023-01-18T21:51:19.534Z,75.95
2023-01-18T21:55:02.211Z,76.88
2023-01-18T21:58:58.080Z,77.07
2023-01-18T22:02:41.000Z,78.34
2023-01-18T22:06:25.115Z,79.04
2023-01-18T22:10:08.402Z,80.61
2023-01-18T22:13:51.060Z,81.72
2023-01-18T22:17:33.812Z,81.90
2023-01-18T22:21:16.543Z,81.50
2023-01-18T22:25:02.246Z,81.43
2023-01-18T22:28:46.948Z,81.80
2023-01-18T22:32:29.706Z,82.48
2023-01-18T22:36:13.225Z,82.32
2023-01-18T22:39:55.887Z,82.42
2023-01-18T22:43:41.077Z,81.45
2023-01-18T22:47:23.745Z,81.21
2023-01-18T22:51:07.502Z,81.65
2023-01-18T22:54:50.188Z,81.90
2023-01-18T22:58:32.912Z,82.05
2023-01-18T23:02:16.935Z,83.03
2023-01-18T23:06:00.590Z,82.22
2023-01-18T23:09:43.465Z,82.02
2023-01-18T23:13:26.334Z,82.38
2023-01-18T23:17:28.519Z,82.90
2023-01-18T23:21:12.558Z,83.22
2023-01-18T23:24:55.494Z,80.76
2023-01-18T23:28:44.034Z,81.00
2023-01-18T23:32:30.431Z,80.27
2023-01-18T23:36:14.578Z,79.80
2023-01-18T23:40:14.964Z,79.20
2023-01-18T23:44:15.234Z,79.78
2023-01-18T23:48:15.744Z,79.56
2023-01-18T23:52:17.356Z,80.18
2023-01-18T23:56:00.133Z,80.12
2023-01-18T23:59:42.763Z,79.34
